createdAt,value
2023-02-11T00:00:22.192Z,21.83
2023-02-11T00:03:25.451Z,22.25
2023-02-11T00:06:29.577Z,22.85
2023-02-11T00:09:31.981Z,20.80
2023-02-11T00:12:35.888Z,22.07
2023-02-11T00:15:38.746Z,21.65
2023-02-11T00:18:41.035Z,21.05
2023-02-11T00:21:45.173Z,20.95
2023-02-11T00:24:47.307Z,21.13
2023-02-11T00:27:52.053Z,19.20
2023-02-11T00:30:56.260Z,20.17
2023-02-11T00:34:01.801Z,20.00
2023-02-11T00:37:08.039Z,19.63
2023-02-11T00:40:10.557Z,16.63
2023-02-11T00:43:12.819Z,19.37
2023-02-11T00:46:16.151Z,21.27
2023-02-11T00:49:19.391Z,24.75
2023-02-11T00:52:21.461Z,21.00
2023-02-11T00:55:23.810Z,21.50
2023-02-11T00:58:25.865Z,22.30
2023-02-11T01:01:28.239Z,18.42
2023-02-11T01:04:30.478Z,21.85
2023-02-11T01:07:32.427Z,20.98
2023-02-11T01:10:34.479Z,20.08
2023-02-11T01:13:40.361Z,17.60
2023-02-11T01:16:42.353Z,17.10
2023-02-11T01:19:44.519Z,19.10
2023-02-11T01:22:46.542Z,14.02
2023-02-11T01:25:53.040Z,19.83
2023-02-11T01:28:55.509Z,19.40
2023-02-11T01:31:58.008Z,24.48
2023-02-11T01:35:00.122Z,22.25
2023-02-11T01:38:02.148Z,21.60
2023-02-11T01:41:10.451Z,20.98
2023-02-11T01:44:44.843Z,19.70
2023-02-11T01:47:46.801Z,19.10
2023-02-11T01:50:53.141Z,17.45
2023-02-11T01:54:15.009Z,20.27
2023-02-11T01:57:29.900Z,20.73
2023-02-11T02:00:37.274Z,20.97
2023-02-11T02:03:44.482Z,21.70
2023-02-11T02:06:53.713Z,22.73
2023-02-11T02:10:03.680Z,23.33
2023-02-11T02:13:05.732Z,20.60
2023-02-11T02:16:16.843Z,22.87
2023-02-11T02:19:42.467Z,19.23
2023-02-11T02:22:56.741Z,21.15
2023-02-11T02:26:14.823Z,21.70
2023-02-11T02:29:54.861Z,20.70
2023-02-11T02:33:41.204Z,19.53
2023-02-11T02:37:01.366Z,20.25
2023-02-11T02:40:11.883Z,18.77
2023-02-11T02:43:15.494Z,16.98
2023-02-11T02:46:30.482Z,20.20
2023-02-11T02:49:32.364Z,18.87
2023-02-11T02:53:12.414Z,18.27
2023-02-11T02:56:18.321Z,16.67
2023-02-11T02:59:53.661Z,18.17
2023-02-11T03:03:44.488Z,18.90
2023-02-11T03:06:55.307Z,18.43
2023-02-11T03:10:22.713Z,18.40
2023-02-11T03:13:29.982Z,19.55
2023-02-11T03:16:39.255Z,17.95
2023-02-11T03:19:44.231Z,19.77
2023-02-11T03:23:20.992Z,18.07
2023-02-11T03:26:35.203Z,18.20
2023-02-11T03:29:51.789Z,18.23
2023-02-11T03:33:05.730Z,19.05
2023-02-11T03:36:20.355Z,21.15
2023-02-11T03:39:30.893Z,19.67
2023-02-11T03:42:41.739Z,20.13
2023-02-11T03:45:49.538Z,19.98
2023-02-11T03:48:59.023Z,19.55
2023-02-11T03:52:03.518Z,18.42
2023-02-11T03:55:13.384Z,25.17
2023-02-11T03:58:16.968Z,19.92
2023-02-11T04:01:20.706Z,16.50
2023-02-11T04:04:22.816Z,18.35
2023-02-11T04:07:25.706Z,19.80
2023-02-11T04:10:27.717Z,20.30
2023-02-11T04:13:30.614Z,22.10
2023-02-11T04:16:32.701Z,22.92
2023-02-11T04:19:35.430Z,22.75
2023-02-11T04:22:39.129Z,24.70
2023-02-11T04:25:41.075Z,24.47
2023-02-11T04:28:43.033Z,24.10
2023-02-11T04:31:45.819Z,25.25
2023-02-11T04:34:48.530Z,29.08
2023-02-11T04:37:50.755Z,26.65
2023-02-11T04:40:55.945Z,27.90
2023-02-11T04:43:58.143Z,24.95
2023-02-11T04:47:00.135Z,26.60
2023-02-11T04:50:02.282Z,23.80
2023-02-11T04:53:04.371Z,25.55
2023-02-11T04:56:08.350Z,27.47
2023-02-11T04:59:11.621Z,30.98
2023-02-11T05:02:13.935Z,31.75
2023-02-11T05:05:16.101Z,30.13
2023-02-11T05:08:18.133Z,31.20
2023-02-11T05:11:23.256Z,28.47
2023-02-11T05:14:25.459Z,30.90
2023-02-11T05:17:27.535Z,31.08
2023-02-11T05:20:30.618Z,27.30
2023-02-11T05:23:35.634Z,24.83
2023-02-11T05:26:40.309Z,29.70
2023-02-11T05:29:42.776Z,24.60
2023-02-11T05:32:44.794Z,22.95
2023-02-11T05:35:46.823Z,24.00
2023-02-11T05:38:48.895Z,27.05
2023-02-11T05:41:52.409Z,24.93
2023-02-11T05:44:54.243Z,25.13
2023-02-11T05:47:57.844Z,29.27
2023-02-11T05:51:00.081Z,24.40
2023-02-11T05:54:02.098Z,22.90
2023-02-11T05:57:04.367Z,20.73
2023-02-11T06:00:08.707Z,23.90
2023-02-11T06:03:10.739Z,21.63
2023-02-11T06:06:12.879Z,23.35
2023-02-11T06:09:15.477Z,24.05
2023-02-11T06:12:17.598Z,28.90
2023-02-11T06:15:19.573Z,27.48
2023-02-11T06:18:21.527Z,19.85
2023-02-11T06:21:33.532Z,28.45
2023-02-11T06:25:00.469Z,27.13
2023-02-11T06:28:06.633Z,29.30
2023-02-11T06:31:09.803Z,28.20
2023-02-11T06:34:14.866Z,26.92
2023-02-11T06:37:16.828Z,30.05
2023-02-11T06:40:18.824Z,28.67
2023-02-11T06:43:21.127Z,30.83
2023-02-11T06:46:23.485Z,30.45
2023-02-11T06:49:25.840Z,28.42
2023-02-11T06:52:27.862Z,28.08
2023-02-11T06:55:29.912Z,26.08
2023-02-11T06:58:32.714Z,28.30
2023-02-11T07:01:35.155Z,31.02
2023-02-11T07:04:37.334Z,32.28
2023-02-11T07:07:39.375Z,30.13
2023-02-11T07:10:41.818Z,30.80
2023-02-11T07:13:43.944Z,30.80
2023-02-11T07:16:45.826Z,31.45
2023-02-11T07:19:47.792Z,30.05
2023-02-11T07:22:50.189Z,32.67
2023-02-11T07:25:52.885Z,28.35
2023-02-11T07:28:55.285Z,26.47
2023-02-11T07:31:57.893Z,27.83
2023-02-11T07:35:00.229Z,28.00
2023-02-11T07:38:02.944Z,28.90
2023-02-11T07:41:11.396Z,26.83
2023-02-11T07:44:15.806Z,28.40
2023-02-11T07:47:18.549Z,26.67
2023-02-11T07:50:20.930Z,27.90
2023-02-11T07:53:22.955Z,26.55
2023-02-11T07:56:25.357Z,25.67
2023-02-11T07:59:27.608Z,23.67
2023-02-11T08:02:29.807Z,24.33
2023-02-11T08:05:31.953Z,22.00
2023-02-11T08:08:35.491Z,27.02
2023-02-11T08:11:37.696Z,22.48
2023-02-11T08:14:40.016Z,22.07
2023-02-11T08:17:42.052Z,20.83
2023-02-11T08:20:45.015Z,18.52
2023-02-11T08:23:47.467Z,17.35
2023-02-11T08:26:49.838Z,18.08
2023-02-11T08:29:52.169Z,16.37
2023-02-11T08:32:54.173Z,16.35
2023-02-11T08:35:56.096Z,17.40
2023-02-11T08:39:16.108Z,15.45
2023-02-11T08:42:20.004Z,16.38
2023-02-11T08:45:22.160Z,16.90
2023-02-11T08:48:25.727Z,18.83
2023-02-11T08:51:31.551Z,16.65
2023-02-11T08:54:33.677Z,16.33
2023-02-11T08:57:35.928Z,15.93
2023-02-11T09:00:38.451Z,16.43
2023-02-11T09:03:40.650Z,15.90
2023-02-11T09:06:42.604Z,17.92
2023-02-11T09:09:44.656Z,17.23
2023-02-11T09:12:47.216Z,18.48
2023-02-11T09:15:49.326Z,20.40
2023-02-11T09:18:51.453Z,20.25
2023-02-11T09:21:53.262Z,20.13
2023-02-11T09:24:55.649Z,17.27
2023-02-11T09:27:58.226Z,20.98
2023-02-11T09:31:09.073Z,19.43
2023-02-11T09:34:12.016Z,20.58
2023-02-11T09:37:14.574Z,19.25
2023-02-11T09:40:17.354Z,17.83
2023-02-11T09:43:29.444Z,10.20
2023-02-11T09:46:37.722Z,17.20
2023-02-11T09:49:48.572Z,17.27
2023-02-11T09:53:11.088Z,18.67
2023-02-11T09:56:15.526Z,18.33
2023-02-11T09:59:18.674Z,20.05
2023-02-11T10:02:29.018Z,19.50
2023-02-11T10:05:52.437Z,18.85
2023-02-11T10:09:18.855Z,17.38
2023-02-11T10:13:04.052Z,19.23
2023-02-11T10:16:21.292Z,19.10
2023-02-11T10:19:41.317Z,21.83
2023-02-11T10:22:54.052Z,19.13
2023-02-11T10:25:57.833Z,19.38
2023-02-11T10:29:05.622Z,18.85
2023-02-11T10:32:25.796Z,18.27
2023-02-11T10:35:27.738Z,16.93
2023-02-11T10:38:34.210Z,15.45
2023-02-11T10:41:41.969Z,18.35
2023-02-11T10:44:58.040Z,17.27
2023-02-11T10:48:01.848Z,18.58
2023-02-11T10:51:34.244Z,18.23
2023-02-11T10:54:36.530Z,17.98
2023-02-11T10:57:50.465Z,18.95
2023-02-11T11:00:55.776Z,16.67
2023-02-11T11:04:00.290Z,17.15
2023-02-11T11:07:30.835Z,17.50
2023-02-11T11:10:45.188Z,14.82
2023-02-11T11:13:58.212Z,15.35
2023-02-11T11:17:00.179Z,15.63
2023-02-11T11:20:20.675Z,16.75
2023-02-11T11:23:24.847Z,17.80
2023-02-11T11:26:39.653Z,20.35
2023-02-11T11:29:55.449Z,18.65
2023-02-11T11:32:58.740Z,17.08
2023-02-11T11:36:07.967Z,18.70
2023-02-11T11:39:16.141Z,15.93
2023-02-11T11:42:25.780Z,14.18
2023-02-11T11:45:28.123Z,16.55
2023-02-11T11:48:39.545Z,15.90
2023-02-11T11:51:47.903Z,15.35
2023-02-11T11:54:59.044Z,14.27
2023-02-11T11:58:01.944Z,13.38
2023-02-11T12:01:19.255Z,13.23
2023-02-11T12:04:48.174Z,11.98
2023-02-11T12:08:08.037Z,13.10
2023-02-11T12:11:12.710Z,11.83
2023-02-11T12:14:33.057Z,11.55
2023-02-11T12:17:47.207Z,11.60
2023-02-11T12:21:14.062Z,11.30
2023-02-11T12:24:33.214Z,10.98
2023-02-11T12:27:50.103Z,12.30
2023-02-11T12:31:04.543Z,11.20
2023-02-11T12:34:42.106Z,12.85
2023-02-11T12:38:05.774Z,12.75
2023-02-11T12:41:47.011Z,10.75
2023-02-11T12:45:07.774Z,11.80
2023-02-11T12:48:13.098Z,11.98
2023-02-11T12:51:34.216Z,10.85
2023-02-11T12:54:54.254Z,10.85
2023-02-11T12:57:59.487Z,10.25
2023-02-11T13:01:08.391Z,9.43
2023-02-11T13:04:24.102Z,9.77
2023-02-11T13:07:33.357Z,9.52
2023-02-11T13:10:38.342Z,10.18
2023-02-11T13:14:04.558Z,11.45
2023-02-11T13:17:17.544Z,9.80
2023-02-11T13:20:33.066Z,10.68
2023-02-11T13:24:09.850Z,10.15
2023-02-11T13:27:29.969Z,9.93
2023-02-11T13:30:35.923Z,9.02
2023-02-11T13:33:44.349Z,9.53
2023-02-11T13:36:55.192Z,8.68
2023-02-11T13:40:04.054Z,9.05
2023-02-11T13:43:19.204Z,8.40
2023-02-11T13:46:21.858Z,8.30
2023-02-11T13:49:40.797Z,8.73
2023-02-11T13:52:43.146Z,8.20
2023-02-11T13:55:47.692Z,9.38
2023-02-11T13:58:59.046Z,9.07
2023-02-11T14:02:47.438Z,8.35
2023-02-11T14:06:28.781Z,9.03
2023-02-11T14:09:37.416Z,9.02
2023-02-11T14:12:39.577Z,9.38
2023-02-11T14:15:41.539Z,8.05
2023-02-11T14:18:50.045Z,9.05
2023-02-11T14:21:52.184Z,8.73
2023-02-11T14:25:01.734Z,8.90
2023-02-11T14:28:16.841Z,9.75
2023-02-11T14:31:25.138Z,8.90
2023-02-11T14:35:05.179Z,8.95
2023-02-11T14:38:37.763Z,9.80
2023-02-11T14:41:42.940Z,9.02
2023-02-11T14:44:46.059Z,9.40
2023-02-11T14:48:03.501Z,9.23
2023-02-11T14:51:13.857Z,8.90
2023-02-11T14:54:22.798Z,10.53
2023-02-11T14:57:25.419Z,8.95
2023-02-11T15:00:27.765Z,9.30
2023-02-11T15:03:48.148Z,9.13
2023-02-11T15:06:50.777Z,10.60
2023-02-11T15:09:57.331Z,10.50
2023-02-11T15:13:02.396Z,9.38
2023-02-11T15:16:11.271Z,10.55
2023-02-11T15:19:41.203Z,9.93
2023-02-11T15:22:46.193Z,9.82
2023-02-11T15:25:56.514Z,9.17
2023-02-11T15:29:01.559Z,9.73
2023-02-11T15:32:07.189Z,10.63
2023-02-11T15:35:12.006Z,10.18
2023-02-11T15:38:14.468Z,9.85
2023-02-11T15:41:38.210Z,9.53
2023-02-11T15:44:40.243Z,10.30
2023-02-11T15:47:51.603Z,9.48
2023-02-11T15:50:58.752Z,11.10
2023-02-11T15:54:17.076Z,11.20
2023-02-11T15:57:21.811Z,10.73
2023-02-11T16:00:28.894Z,10.43
2023-02-11T16:03:33.728Z,10.63
2023-02-11T16:06:43.302Z,10.68
2023-02-11T16:09:45.595Z,12.35
2023-02-11T16:12:53.185Z,11.77
2023-02-11T16:16:01.734Z,10.15
2023-02-11T16:19:06.205Z,11.23
2023-02-11T16:22:15.937Z,10.65
2023-02-11T16:25:21.249Z,11.48
2023-02-11T16:28:23.817Z,10.73
2023-02-11T16:31:36.774Z,10.73
2023-02-11T16:34:39.017Z,11.25
2023-02-11T16:37:41.188Z,10.60
2023-02-11T16:40:45.004Z,10.73
2023-02-11T16:43:47.699Z,11.47
2023-02-11T16:46:49.960Z,11.30
2023-02-11T16:49:52.866Z,11.38
2023-02-11T16:52:57.500Z,11.60
2023-02-11T16:55:59.674Z,12.30
2023-02-11T16:59:02.081Z,10.87
2023-02-11T17:02:04.043Z,10.75
2023-02-11T17:05:15.515Z,11.27
2023-02-11T17:08:17.731Z,11.40
2023-02-11T17:11:19.994Z,11.98
2023-02-11T17:14:21.902Z,11.10
2023-02-11T17:17:24.123Z,10.60
2023-02-11T17:20:26.601Z,11.02
2023-02-11T17:23:28.825Z,10.05
2023-02-11T17:26:30.905Z,12.05
2023-02-11T17:29:36.830Z,10.87
2023-02-11T17:32:38.951Z,11.60
2023-02-11T17:35:41.222Z,10.02
2023-02-11T17:38:44.729Z,11.60
2023-02-11T17:41:47.695Z,10.70
2023-02-11T17:44:49.644Z,11.10
2023-02-11T17:47:52.393Z,11.45
2023-02-11T17:50:54.689Z,11.77
2023-02-11T17:53:58.967Z,11.65
2023-02-11T17:57:01.112Z,11.90
2023-02-11T18:00:06.433Z,11.93
2023-02-11T18:03:09.005Z,10.93
2023-02-11T18:06:12.415Z,12.02
2023-02-11T18:09:16.023Z,11.82
2023-02-11T18:12:25.606Z,12.15
2023-02-11T18:15:29.320Z,11.60
2023-02-11T18:18:32.144Z,12.18
2023-02-11T18:21:34.675Z,12.25
2023-02-11T18:24:36.875Z,11.55
2023-02-11T18:27:41.819Z,12.63
2023-02-11T18:30:44.212Z,13.07
2023-02-11T18:33:47.929Z,13.88
2023-02-11T18:36:50.619Z,13.38
2023-02-11T18:39:53.470Z,14.70
2023-02-11T18:42:56.137Z,14.27
2023-02-11T18:45:58.945Z,13.57
2023-02-11T18:49:01.368Z,13.70
2023-02-11T18:52:04.284Z,13.38
2023-02-11T18:55:09.275Z,11.65
2023-02-11T18:58:12.248Z,12.23
2023-02-11T19:01:22.876Z,13.37
2023-02-11T19:04:25.453Z,13.50
2023-02-11T19:07:27.690Z,11.48
2023-02-11T19:10:30.084Z,11.45
2023-02-11T19:13:32.639Z,9.93
2023-02-11T19:16:34.927Z,11.53
2023-02-11T19:19:37.351Z,13.00
2023-02-11T19:22:39.521Z,12.73
2023-02-11T19:25:47.994Z,14.15
2023-02-11T19:28:50.148Z,13.60
2023-02-11T19:31:52.699Z,13.67
2023-02-11T19:34:55.061Z,12.75
2023-02-11T19:37:57.556Z,12.80
2023-02-11T19:41:03.895Z,12.27
2023-02-11T19:44:08.317Z,12.50
2023-02-11T19:47:10.689Z,13.07
2023-02-11T19:50:13.522Z,12.50
2023-02-11T19:53:15.798Z,11.88
2023-02-11T19:56:20.833Z,12.52
2023-02-11T19:59:23.826Z,11.98
2023-02-11T20:02:30.031Z,11.90
2023-02-11T20:05:32.292Z,10.02
2023-02-11T20:08:34.471Z,11.65
2023-02-11T20:11:39.744Z,9.43
2023-02-11T20:14:42.215Z,9.90
2023-02-11T20:17:44.458Z,11.03
2023-02-11T20:20:46.598Z,10.90
2023-02-11T20:24:08.233Z,11.25
2023-02-11T20:27:12.513Z,10.88
2023-02-11T20:30:17.330Z,10.38
2023-02-11T20:33:21.631Z,10.90
2023-02-11T20:36:26.637Z,10.95
2023-02-11T20:39:28.588Z,10.77
2023-02-11T20:42:30.447Z,11.07
2023-02-11T20:45:35.803Z,10.70
2023-02-11T20:48:38.432Z,11.03
2023-02-11T20:51:40.725Z,11.13
2023-02-11T20:54:43.489Z,9.27
2023-02-11T20:57:46.661Z,9.85
2023-02-11T21:00:48.983Z,10.95
2023-02-11T21:03:54.543Z,9.00
2023-02-11T21:06:59.594Z,10.38
2023-02-11T21:10:01.931Z,11.82
2023-02-11T21:13:04.182Z,11.30
2023-02-11T21:16:07.453Z,10.13
2023-02-11T21:19:09.683Z,11.40
2023-02-11T21:22:12.667Z,10.57
2023-02-11T21:25:18.200Z,10.52
2023-02-11T21:28:30.991Z,9.95
2023-02-11T21:31:34.476Z,12.00
2023-02-11T21:34:36.631Z,11.13
2023-02-11T21:37:38.725Z,11.57
2023-02-11T21:40:42.308Z,10.52
2023-02-11T21:43:45.670Z,10.95
2023-02-11T21:46:50.020Z,10.93
2023-02-11T21:49:55.500Z,10.27
2023-02-11T21:52:57.882Z,10.30
2023-02-11T21:56:04.552Z,10.98
2023-02-11T21:59:08.044Z,11.05
2023-02-11T22:02:11.504Z,10.50
2023-02-11T22:05:13.638Z,10.70
2023-02-11T22:08:16.683Z,9.52
2023-02-11T22:11:20.781Z,8.02
2023-02-11T22:14:22.966Z,10.98
2023-02-11T22:17:25.067Z,11.65
2023-02-11T22:20:27.474Z,10.77
2023-02-11T22:23:30.364Z,10.15
2023-02-11T22:26:36.500Z,11.85
2023-02-11T22:29:38.857Z,10.57
2023-02-11T22:32:44.600Z,11.57
2023-02-11T22:35:46.745Z,10.70
2023-02-11T22:38:53.007Z,10.02
2023-02-11T22:41:56.595Z,10.85
2023-02-11T22:44:58.443Z,9.38
2023-02-11T22:48:04.074Z,8.02
2023-02-11T22:51:15.212Z,9.23
2023-02-11T22:54:19.011Z,10.95
2023-02-11T22:57:20.909Z,10.68
2023-02-11T23:00:26.489Z,10.80
2023-02-11T23:03:28.963Z,8.68
2023-02-11T23:06:30.864Z,11.40
2023-02-11T23:09:32.906Z,10.40
2023-02-11T23:12:35.164Z,12.32
2023-02-11T23:15:42.073Z,9.15
2023-02-11T23:18:45.596Z,10.75
2023-02-11T23:21:51.101Z,9.00
2023-02-11T23:24:53.176Z,11.73
2023-02-11T23:27:55.233Z,12.00
2023-02-11T23:30:57.423Z,12.02
2023-02-11T23:34:01.146Z,9.70
2023-02-11T23:37:03.418Z,10.53
2023-02-11T23:40:05.872Z,10.10
2023-02-11T23:43:08.129Z,11.30
2023-02-11T23:46:10.950Z,11.00
2023-02-11T23:49:13.255Z,11.50
2023-02-11T23:52:15.231Z,10.67
2023-02-11T23:55:17.425Z,10.68
2023-02-11T23:58:19.297Z,11.02
